sensor_id;sensor_type;location;lat;lon;timestamp;temperature;humidity
53422;DHT22;39319;52.944;5.928;2023-07-30T00:02:19;20.00;99.90
53422;DHT22;39319;52.944;5.928;2023-07-30T00:04:46;19.90;99.90
53422;DHT22;39319;52.944;5.928;2023-07-30T00:07:12;19.90;99.90
53422;DHT22;39319;52.944;5.928;2023-07-30T00:09:38;19.80;99.90
53422;DHT22;39319;52.944;5.928;2023-07-30T00:12:05;19.90;99.90
53422;DHT22;39319;52.944;5.928;2023-07-30T00:14:31;19.80;99.90
53422;DHT22;39319;52.944;5.928;2023-07-30T00:16:57;19.70;99.90
53422;DHT22;39319;52.944;5.928;2023-07-30T00:19:23;19.70;99.90
53422;DHT22;39319;52.944;5.928;2023-07-30T00:21:50;19.70;99.90
53422;DHT22;39319;52.944;5.928;2023-07-30T00:24:16;19.60;99.90
53422;DHT22;39319;52.944;5.928;2023-07-30T00:26:42;19.60;99.90
53422;DHT22;39319;52.944;5.928;2023-07-30T00:29:08;19.60;99.90
53422;DHT22;39319;52.944;5.928;2023-07-30T00:31:33;19.60;99.90
53422;DHT22;39319;52.944;5.928;2023-07-30T00:33:59;19.50;99.90
53422;DHT22;39319;52.944;5.928;2023-07-30T00:36:25;19.50;99.90
53422;DHT22;39319;52.944;5.928;2023-07-30T00:38:51;19.50;99.90
53422;DHT22;39319;52.944;5.928;2023-07-30T00:41:16;19.40;99.90
53422;DHT22;39319;52.944;5.928;2023-07-30T00:43:42;19.40;99.90
53422;DHT22;39319;52.944;5.928;2023-07-30T00:46:08;19.40;99.90
53422;DHT22;39319;52.944;5.928;2023-07-30T00:48:34;19.40;99.90
53422;DHT22;39319;52.944;5.928;2023-07-30T00:51:00;19.30;99.90
53422;DHT22;39319;52.944;5.928;2023-07-30T00:53:29;19.30;99.90
53422;DHT22;39319;52.944;5.928;2023-07-30T00:55:55;19.30;99.90
53422;DHT22;39319;52.944;5.928;2023-07-30T00:58:21;19.30;99.90
53422;DHT22;39319;52.944;5.928;2023-07-30T01:00:48;19.20;99.90
53422;DHT22;39319;52.944;5.928;2023-07-30T01:03:14;19.30;99.90
53422;DHT22;39319;52.944;5.928;2023-07-30T01:05:40;19.30;99.90
53422;DHT22;39319;52.944;5.928;2023-07-30T01:08:05;19.30;99.90
53422;DHT22;39319;52.944;5.928;2023-07-30T01:10:32;19.20;99.90
53422;DHT22;39319;52.944;5.928;2023-07-30T01:13:01;19.20;99.90
53422;DHT22;39319;52.944;5.928;2023-07-30T01:15:31;19.20;99.90
53422;DHT22;39319;52.944;5.928;2023-07-30T01:17:58;19.20;99.90
53422;DHT22;39319;52.944;5.928;2023-07-30T01:20:24;19.10;99.90
53422;DHT22;39319;52.944;5.928;2023-07-30T01:22:49;19.10;99.90
53422;DHT22;39319;52.944;5.928;2023-07-30T01:25:16;19.00;99.90
53422;DHT22;39319;52.944;5.928;2023-07-30T01:27:48;19.00;99.90
53422;DHT22;39319;52.944;5.928;2023-07-30T01:30:26;19.00;99.90
53422;DHT22;39319;52.944;5.928;2023-07-30T01:32:52;19.00;99.90
53422;DHT22;39319;52.944;5.928;2023-07-30T01:35:21;19.00;99.90
53422;DHT22;39319;52.944;5.928;2023-07-30T01:37:50;18.90;99.90
53422;DHT22;39319;52.944;5.928;2023-07-30T01:40:17;18.80;99.90
53422;DHT22;39319;52.944;5.928;2023-07-30T01:42:43;18.80;99.90
53422;DHT22;39319;52.944;5.928;2023-07-30T01:45:08;18.80;99.90
53422;DHT22;39319;52.944;5.928;2023-07-30T01:47:34;18.80;99.90
53422;DHT22;39319;52.944;5.928;2023-07-30T01:50:00;18.80;99.90
53422;DHT22;39319;52.944;5.928;2023-07-30T01:52:26;18.70;99.90
53422;DHT22;39319;52.944;5.928;2023-07-30T01:54:51;18.70;99.90
53422;DHT22;39319;52.944;5.928;2023-07-30T01:57:17;18.70;99.90
53422;DHT22;39319;52.944;5.928;2023-07-30T01:59:43;18.70;99.90
53422;DHT22;39319;52.944;5.928;2023-07-30T02:02:09;18.70;99.90
53422;DHT22;39319;52.944;5.928;2023-07-30T02:04:34;18.70;99.90
53422;DHT22;39319;52.944;5.928;2023-07-30T02:07:00;18.70;99.90
53422;DHT22;39319;52.944;5.928;2023-07-30T02:09:26;18.70;99.90
53422;DHT22;39319;52.944;5.928;2023-07-30T02:11:51;18.70;99.90
53422;DHT22;39319;52.944;5.928;2023-07-30T02:14:20;18.70;99.90
53422;DHT22;39319;52.944;5.928;2023-07-30T02:16:45;18.80;99.90
53422;DHT22;39319;52.944;5.928;2023-07-30T02:19:11;18.70;99.90
53422;DHT22;39319;52.944;5.928;2023-07-30T02:21:37;18.70;99.90
53422;DHT22;39319;52.944;5.928;2023-07-30T02:24:08;18.70;99.90
53422;DHT22;39319;52.944;5.928;2023-07-30T02:26:35;18.70;99.90
53422;DHT22;39319;52.944;5.928;2023-07-30T02:29:01;18.70;99.90
53422;DHT22;39319;52.944;5.928;2023-07-30T02:31:27;18.70;99.90
53422;DHT22;39319;52.944;5.928;2023-07-30T02:33:53;18.60;99.90
53422;DHT22;39319;52.944;5.928;2023-07-30T02:36:18;18.60;99.90
53422;DHT22;39319;52.944;5.928;2023-07-30T02:38:44;18.70;99.90
53422;DHT22;39319;52.944;5.928;2023-07-30T02:41:10;18.70;99.90
53422;DHT22;39319;52.944;5.928;2023-07-30T02:43:35;18.70;99.90
53422;DHT22;39319;52.944;5.928;2023-07-30T02:46:01;18.80;99.90
53422;DHT22;39319;52.944;5.928;2023-07-30T02:48:27;18.80;99.90
53422;DHT22;39319;52.944;5.928;2023-07-30T02:50:52;18.80;99.90
53422;DHT22;39319;52.944;5.928;2023-07-30T02:53:18;19.00;99.90
53422;DHT22;39319;52.944;5.928;2023-07-30T02:55:44;18.90;99.90
53422;DHT22;39319;52.944;5.928;2023-07-30T02:58:10;18.90;99.90
53422;DHT22;39319;52.944;5.928;2023-07-30T03:00:35;19.00;99.90
53422;DHT22;39319;52.944;5.928;2023-07-30T03:03:02;19.00;99.90
53422;DHT22;39319;52.944;5.928;2023-07-30T03:05:28;19.00;99.90
53422;DHT22;39319;52.944;5.928;2023-07-30T03:07:53;19.00;99.90
53422;DHT22;39319;52.944;5.928;2023-07-30T03:10:19;19.10;99.90
53422;DHT22;39319;52.944;5.928;2023-07-30T03:12:45;19.10;99.90
53422;DHT22;39319;52.944;5.928;2023-07-30T03:15:11;19.20;99.90
53422;DHT22;39319;52.944;5.928;2023-07-30T03:17:36;19.10;99.90
53422;DHT22;39319;52.944;5.928;2023-07-30T03:20:03;19.10;99.90
53422;DHT22;39319;52.944;5.928;2023-07-30T03:22:29;19.10;99.90
53422;DHT22;39319;52.944;5.928;2023-07-30T03:24:58;19.00;99.90
53422;DHT22;39319;52.944;5.928;2023-07-30T03:27:25;19.00;99.90
53422;DHT22;39319;52.944;5.928;2023-07-30T03:29:51;19.00;99.90
53422;DHT22;39319;52.944;5.928;2023-07-30T03:32:17;19.10;99.90
53422;DHT22;39319;52.944;5.928;2023-07-30T03:34:42;19.10;99.90
53422;DHT22;39319;52.944;5.928;2023-07-30T03:37:08;19.20;99.90
53422;DHT22;39319;52.944;5.928;2023-07-30T03:39:34;19.30;99.90
53422;DHT22;39319;52.944;5.928;2023-07-30T03:42:00;19.30;99.90
53422;DHT22;39319;52.944;5.928;2023-07-30T03:44:26;19.20;99.90
53422;DHT22;39319;52.944;5.928;2023-07-30T03:46:52;19.30;99.90
53422;DHT22;39319;52.944;5.928;2023-07-30T03:49:17;19.20;99.90
53422;DHT22;39319;52.944;5.928;2023-07-30T03:51:43;19.30;99.90
53422;DHT22;39319;52.944;5.928;2023-07-30T03:54:09;19.30;99.30
53422;DHT22;39319;52.944;5.928;2023-07-30T03:56:35;19.30;98.80
53422;DHT22;39319;52.944;5.928;2023-07-30T03:59:00;19.30;98.50
53422;DHT22;39319;52.944;5.928;2023-07-30T04:01:26;19.30;98.40
53422;DHT22;39319;52.944;5.928;2023-07-30T04:03:53;19.30;98.30
53422;DHT22;39319;52.944;5.928;2023-07-30T04:06:18;19.30;98.20
53422;DHT22;39319;52.944;5.928;2023-07-30T04:08:44;19.30;98.10
53422;DHT22;39319;52.944;5.928;2023-07-30T04:11:10;19.30;98.10
53422;DHT22;39319;52.944;5.928;2023-07-30T04:13:38;19.30;98.50
53422;DHT22;39319;52.944;5.928;2023-07-30T04:16:04;19.30;98.50
53422;DHT22;39319;52.944;5.928;2023-07-30T04:18:29;19.20;99.10
53422;DHT22;39319;52.944;5.928;2023-07-30T04:20:55;19.30;99.10
53422;DHT22;39319;52.944;5.928;2023-07-30T04:23:23;19.40;98.80
53422;DHT22;39319;52.944;5.928;2023-07-30T04:25:50;19.30;98.90
53422;DHT22;39319;52.944;5.928;2023-07-30T04:28:16;19.30;98.70
53422;DHT22;39319;52.944;5.928;2023-07-30T04:30:44;19.30;98.80
53422;DHT22;39319;52.944;5.928;2023-07-30T04:33:12;19.30;98.20
53422;DHT22;39319;52.944;5.928;2023-07-30T04:35:39;19.40;97.80
53422;DHT22;39319;52.944;5.928;2023-07-30T04:38:05;19.50;97.40
53422;DHT22;39319;52.944;5.928;2023-07-30T04:40:31;19.40;97.50
53422;DHT22;39319;52.944;5.928;2023-07-30T04:42:59;19.50;97.50
53422;DHT22;39319;52.944;5.928;2023-07-30T04:45:25;19.40;97.30
53422;DHT22;39319;52.944;5.928;2023-07-30T04:47:50;19.50;97.20
53422;DHT22;39319;52.944;5.928;2023-07-30T04:50:16;19.50;97.10
53422;DHT22;39319;52.944;5.928;2023-07-30T04:52:42;19.50;97.10
53422;DHT22;39319;52.944;5.928;2023-07-30T04:55:08;19.50;97.00
53422;DHT22;39319;52.944;5.928;2023-07-30T04:57:33;19.60;97.10
53422;DHT22;39319;52.944;5.928;2023-07-30T04:59:59;19.50;97.00
53422;DHT22;39319;52.944;5.928;2023-07-30T05:02:25;19.50;97.00
53422;DHT22;39319;52.944;5.928;2023-07-30T05:04:51;19.60;97.20
53422;DHT22;39319;52.944;5.928;2023-07-30T05:07:16;19.60;96.90
53422;DHT22;39319;52.944;5.928;2023-07-30T05:09:42;19.70;96.60
53422;DHT22;39319;52.944;5.928;2023-07-30T05:12:08;19.70;96.50
53422;DHT22;39319;52.944;5.928;2023-07-30T05:14:33;19.70;96.20
53422;DHT22;39319;52.944;5.928;2023-07-30T05:16:59;19.70;96.30
53422;DHT22;39319;52.944;5.928;2023-07-30T05:19:25;19.70;95.50
53422;DHT22;39319;52.944;5.928;2023-07-30T05:21:51;19.80;95.40
53422;DHT22;39319;52.944;5.928;2023-07-30T05:24:16;19.70;95.60
53422;DHT22;39319;52.944;5.928;2023-07-30T05:26:42;19.70;95.70
53422;DHT22;39319;52.944;5.928;2023-07-30T05:29:08;19.70;95.80
53422;DHT22;39319;52.944;5.928;2023-07-30T05:31:33;19.70;96.20
53422;DHT22;39319;52.944;5.928;2023-07-30T05:33:59;19.80;96.30
53422;DHT22;39319;52.944;5.928;2023-07-30T05:36:25;19.80;96.20
53422;DHT22;39319;52.944;5.928;2023-07-30T05:38:51;19.70;96.20
53422;DHT22;39319;52.944;5.928;2023-07-30T05:41:17;19.80;96.20
53422;DHT22;39319;52.944;5.928;2023-07-30T05:43:42;19.80;96.00
53422;DHT22;39319;52.944;5.928;2023-07-30T05:46:08;19.80;96.30
53422;DHT22;39319;52.944;5.928;2023-07-30T05:48:34;19.80;96.20
53422;DHT22;39319;52.944;5.928;2023-07-30T05:50:59;19.80;96.20
53422;DHT22;39319;52.944;5.928;2023-07-30T05:53:25;19.80;96.40
53422;DHT22;39319;52.944;5.928;2023-07-30T05:55:51;19.70;96.50
53422;DHT22;39319;52.944;5.928;2023-07-30T05:58:16;19.70;96.70
53422;DHT22;39319;52.944;5.928;2023-07-30T06:00:42;19.80;96.30
53422;DHT22;39319;52.944;5.928;2023-07-30T06:03:08;19.80;95.60
53422;DHT22;39319;52.944;5.928;2023-07-30T06:05:42;19.90;94.60
53422;DHT22;39319;52.944;5.928;2023-07-30T06:08:08;19.90;94.30
53422;DHT22;39319;52.944;5.928;2023-07-30T06:10:38;19.90;94.50
53422;DHT22;39319;52.944;5.928;2023-07-30T06:13:04;19.80;94.60
53422;DHT22;39319;52.944;5.928;2023-07-30T06:15:31;19.80;94.60
53422;DHT22;39319;52.944;5.928;2023-07-30T06:17:57;19.80;94.50
53422;DHT22;39319;52.944;5.928;2023-07-30T06:20:23;19.90;94.70
53422;DHT22;39319;52.944;5.928;2023-07-30T06:22:48;19.80;95.00
53422;DHT22;39319;52.944;5.928;2023-07-30T06:25:14;19.80;95.00
53422;DHT22;39319;52.944;5.928;2023-07-30T06:27:40;19.90;94.90
53422;DHT22;39319;52.944;5.928;2023-07-30T06:30:06;19.90;95.00
53422;DHT22;39319;52.944;5.928;2023-07-30T06:32:32;19.90;95.30
53422;DHT22;39319;52.944;5.928;2023-07-30T06:34:57;19.90;94.80
53422;DHT22;39319;52.944;5.928;2023-07-30T06:37:23;19.90;95.10
53422;DHT22;39319;52.944;5.928;2023-07-30T06:39:49;20.10;94.60
53422;DHT22;39319;52.944;5.928;2023-07-30T06:42:15;19.90;95.00
53422;DHT22;39319;52.944;5.928;2023-07-30T06:44:40;20.00;95.10
53422;DHT22;39319;52.944;5.928;2023-07-30T06:47:06;20.00;94.70
53422;DHT22;39319;52.944;5.928;2023-07-30T06:49:32;20.00;94.50
53422;DHT22;39319;52.944;5.928;2023-07-30T06:52:00;20.00;94.80
53422;DHT22;39319;52.944;5.928;2023-07-30T06:54:25;20.00;94.80
53422;DHT22;39319;52.944;5.928;2023-07-30T06:56:51;20.00;94.50
53422;DHT22;39319;52.944;5.928;2023-07-30T06:59:17;19.90;94.40
53422;DHT22;39319;52.944;5.928;2023-07-30T07:01:43;19.90;94.40
53422;DHT22;39319;52.944;5.928;2023-07-30T07:04:08;19.80;94.40
53422;DHT22;39319;52.944;5.928;2023-07-30T07:06:34;19.90;94.00
53422;DHT22;39319;52.944;5.928;2023-07-30T07:09:00;20.00;94.30
53422;DHT22;39319;52.944;5.928;2023-07-30T07:11:26;20.00;94.20
53422;DHT22;39319;52.944;5.928;2023-07-30T07:13:52;21.60;94.80
53422;DHT22;39319;52.944;5.928;2023-07-30T07:16:18;20.10;94.70
53422;DHT22;39319;52.944;5.928;2023-07-30T07:18:44;20.20;94.40
53422;DHT22;39319;52.944;5.928;2023-07-30T07:21:10;20.10;94.00
53422;DHT22;39319;52.944;5.928;2023-07-30T07:23:36;20.10;93.70
53422;DHT22;39319;52.944;5.928;2023-07-30T07:26:02;20.10;93.30
53422;DHT22;39319;52.944;5.928;2023-07-30T07:28:28;20.20;93.00
53422;DHT22;39319;52.944;5.928;2023-07-30T07:30:54;20.10;92.80
53422;DHT22;39319;52.944;5.928;2023-07-30T07:33:21;19.90;93.00
53422;DHT22;39319;52.944;5.928;2023-07-30T07:35:47;19.80;93.60
53422;DHT22;39319;52.944;5.928;2023-07-30T07:38:14;19.70;93.90
53422;DHT22;39319;52.944;5.928;2023-07-30T07:40:42;19.70;94.10
53422;DHT22;39319;52.944;5.928;2023-07-30T07:43:08;19.70;94.10
53422;DHT22;39319;52.944;5.928;2023-07-30T07:45:34;19.60;94.30
53422;DHT22;39319;52.944;5.928;2023-07-30T07:48:00;19.70;94.50
53422;DHT22;39319;52.944;5.928;2023-07-30T07:50:26;19.70;94.40
53422;DHT22;39319;52.944;5.928;2023-07-30T07:52:51;19.80;94.60
53422;DHT22;39319;52.944;5.928;2023-07-30T07:55:17;19.80;94.80
53422;DHT22;39319;52.944;5.928;2023-07-30T07:57:43;19.70;94.80
53422;DHT22;39319;52.944;5.928;2023-07-30T08:00:09;19.80;95.10
53422;DHT22;39319;52.944;5.928;2023-07-30T08:02:35;19.80;95.30
53422;DHT22;39319;52.944;5.928;2023-07-30T08:05:00;19.80;95.10
53422;DHT22;39319;52.944;5.928;2023-07-30T08:07:26;19.90;94.70
53422;DHT22;39319;52.944;5.928;2023-07-30T08:09:52;19.90;94.60
53422;DHT22;39319;52.944;5.928;2023-07-30T08:12:20;20.00;94.50
53422;DHT22;39319;52.944;5.928;2023-07-30T08:14:46;20.10;94.70
53422;DHT22;39319;52.944;5.928;2023-07-30T08:17:11;20.20;94.60
53422;DHT22;39319;52.944;5.928;2023-07-30T08:19:37;20.20;94.60
53422;DHT22;39319;52.944;5.928;2023-07-30T08:22:03;20.40;94.90
53422;DHT22;39319;52.944;5.928;2023-07-30T08:24:31;20.50;95.00
53422;DHT22;39319;52.944;5.928;2023-07-30T08:26:57;20.50;95.00
53422;DHT22;39319;52.944;5.928;2023-07-30T08:29:22;20.70;94.90
53422;DHT22;39319;52.944;5.928;2023-07-30T08:31:48;20.50;95.10
53422;DHT22;39319;52.944;5.928;2023-07-30T08:34:14;20.60;95.10
53422;DHT22;39319;52.944;5.928;2023-07-30T08:36:40;20.60;95.20
53422;DHT22;39319;52.944;5.928;2023-07-30T08:39:05;20.50;94.70
53422;DHT22;39319;52.944;5.928;2023-07-30T08:41:31;20.50;94.60
53422;DHT22;39319;52.944;5.928;2023-07-30T08:43:57;20.50;95.60
53422;DHT22;39319;52.944;5.928;2023-07-30T08:46:23;20.20;95.80
53422;DHT22;39319;52.944;5.928;2023-07-30T08:48:49;19.80;96.30
53422;DHT22;39319;52.944;5.928;2023-07-30T08:51:15;19.70;96.90
53422;DHT22;39319;52.944;5.928;2023-07-30T08:53:42;19.60;97.10
53422;DHT22;39319;52.944;5.928;2023-07-30T08:56:09;19.40;97.40
53422;DHT22;39319;52.944;5.928;2023-07-30T08:58:35;19.30;97.60
53422;DHT22;39319;52.944;5.928;2023-07-30T09:01:09;19.30;98.10
53422;DHT22;39319;52.944;5.928;2023-07-30T09:03:39;19.30;98.30
53422;DHT22;39319;52.944;5.928;2023-07-30T09:06:09;19.30;98.40
53422;DHT22;39319;52.944;5.928;2023-07-30T09:08:35;19.30;98.30
53422;DHT22;39319;52.944;5.928;2023-07-30T09:11:10;19.40;98.30
53422;DHT22;39319;52.944;5.928;2023-07-30T09:13:37;19.50;98.20
53422;DHT22;39319;52.944;5.928;2023-07-30T09:16:14;19.50;98.50
53422;DHT22;39319;52.944;5.928;2023-07-30T09:18:46;19.50;98.50
53422;DHT22;39319;52.944;5.928;2023-07-30T09:21:13;19.50;98.70
53422;DHT22;39319;52.944;5.928;2023-07-30T09:23:43;19.70;98.70
53422;DHT22;39319;52.944;5.928;2023-07-30T09:26:09;19.80;98.90
53422;DHT22;39319;52.944;5.928;2023-07-30T09:28:39;20.10;99.00
53422;DHT22;39319;52.944;5.928;2023-07-30T09:31:07;20.30;98.40
53422;DHT22;39319;52.944;5.928;2023-07-30T09:33:33;20.60;97.80
53422;DHT22;39319;52.944;5.928;2023-07-30T09:36:03;20.80;97.50
53422;DHT22;39319;52.944;5.928;2023-07-30T09:38:29;21.20;96.00
53422;DHT22;39319;52.944;5.928;2023-07-30T09:41:02;21.30;95.90
53422;DHT22;39319;52.944;5.928;2023-07-30T09:43:34;21.40;95.40
53422;DHT22;39319;52.944;5.928;2023-07-30T09:46:07;21.50;95.40
53422;DHT22;39319;52.944;5.928;2023-07-30T09:48:34;21.60;95.90
53422;DHT22;39319;52.944;5.928;2023-07-30T09:51:01;21.80;95.20
53422;DHT22;39319;52.944;5.928;2023-07-30T09:53:32;21.90;94.30
53422;DHT22;39319;52.944;5.928;2023-07-30T09:56:01;22.00;94.00
53422;DHT22;39319;52.944;5.928;2023-07-30T09:58:27;22.10;94.30
53422;DHT22;39319;52.944;5.928;2023-07-30T10:00:53;22.00;94.90
53422;DHT22;39319;52.944;5.928;2023-07-30T10:03:20;22.10;94.20
53422;DHT22;39319;52.944;5.928;2023-07-30T10:05:47;22.20;93.90
53422;DHT22;39319;52.944;5.928;2023-07-30T10:08:20;22.10;93.00
53422;DHT22;39319;52.944;5.928;2023-07-30T10:10:47;22.20;92.70
53422;DHT22;39319;52.944;5.928;2023-07-30T10:13:15;22.40;92.20
53422;DHT22;39319;52.944;5.928;2023-07-30T10:15:43;22.60;92.00
53422;DHT22;39319;52.944;5.928;2023-07-30T10:18:09;22.80;91.80
53422;DHT22;39319;52.944;5.928;2023-07-30T10:20:35;23.00;91.00
53422;DHT22;39319;52.944;5.928;2023-07-30T10:23:01;23.10;90.90
53422;DHT22;39319;52.944;5.928;2023-07-30T10:25:47;23.10;90.60
53422;DHT22;39319;52.944;5.928;2023-07-30T10:28:45;23.20;91.20
53422;DHT22;39319;52.944;5.928;2023-07-30T10:31:11;23.10;90.90
53422;DHT22;39319;52.944;5.928;2023-07-30T10:33:52;23.20;91.00
53422;DHT22;39319;52.944;5.928;2023-07-30T10:36:31;23.20;90.50
53422;DHT22;39319;52.944;5.928;2023-07-30T10:38:57;23.20;90.20
53422;DHT22;39319;52.944;5.928;2023-07-30T10:41:22;23.00;90.70
53422;DHT22;39319;52.944;5.928;2023-07-30T10:43:49;23.10;90.00
53422;DHT22;39319;52.944;5.928;2023-07-30T10:46:17;23.00;90.30
53422;DHT22;39319;52.944;5.928;2023-07-30T10:48:44;23.10;90.20
53422;DHT22;39319;52.944;5.928;2023-07-30T10:51:13;23.10;90.30
53422;DHT22;39319;52.944;5.928;2023-07-30T10:53:41;23.20;90.90
53422;DHT22;39319;52.944;5.928;2023-07-30T10:56:09;23.30;90.10
53422;DHT22;39319;52.944;5.928;2023-07-30T10:58:36;23.40;90.40
53422;DHT22;39319;52.944;5.928;2023-07-30T11:01:03;23.30;90.30
53422;DHT22;39319;52.944;5.928;2023-07-30T11:03:30;23.30;90.00
53422;DHT22;39319;52.944;5.928;2023-07-30T11:05:57;23.20;89.40
53422;DHT22;39319;52.944;5.928;2023-07-30T11:11:02;23.00;89.60
53422;DHT22;39319;52.944;5.928;2023-07-30T11:13:27;23.00;90.10
53422;DHT22;39319;52.944;5.928;2023-07-30T11:15:53;22.90;90.10
53422;DHT22;39319;52.944;5.928;2023-07-30T11:18:19;22.70;91.00
53422;DHT22;39319;52.944;5.928;2023-07-30T11:20:45;22.60;91.00
53422;DHT22;39319;52.944;5.928;2023-07-30T11:23:21;22.50;91.00
53422;DHT22;39319;52.944;5.928;2023-07-30T11:25:50;22.40;90.90
53422;DHT22;39319;52.944;5.928;2023-07-30T11:28:38;22.60;91.30
53422;DHT22;39319;52.944;5.928;2023-07-30T11:31:09;22.80;92.50
53422;DHT22;39319;52.944;5.928;2023-07-30T11:33:36;23.10;91.40
53422;DHT22;39319;52.944;5.928;2023-07-30T11:36:03;23.30;90.30
53422;DHT22;39319;52.944;5.928;2023-07-30T11:38:30;23.30;90.00
53422;DHT22;39319;52.944;5.928;2023-07-30T11:40:57;23.30;90.30
53422;DHT22;39319;52.944;5.928;2023-07-30T11:43:23;23.10;90.60
53422;DHT22;39319;52.944;5.928;2023-07-30T11:46:10;22.90;90.50
53422;DHT22;39319;52.944;5.928;2023-07-30T11:48:37;22.70;90.90
53422;DHT22;39319;52.944;5.928;2023-07-30T11:51:03;22.50;91.20
53422;DHT22;39319;52.944;5.928;2023-07-30T11:56:28;22.90;91.90
53422;DHT22;39319;52.944;5.928;2023-07-30T11:59:04;23.10;91.60
53422;DHT22;39319;52.944;5.928;2023-07-30T12:01:32;23.10;91.80
53422;DHT22;39319;52.944;5.928;2023-07-30T12:04:03;23.00;92.80
53422;DHT22;39319;52.944;5.928;2023-07-30T12:09:12;22.50;93.60
53422;DHT22;39319;52.944;5.928;2023-07-30T12:14:15;22.40;93.80
53422;DHT22;39319;52.944;5.928;2023-07-30T12:16:40;22.50;93.40
53422;DHT22;39319;52.944;5.928;2023-07-30T12:19:06;22.60;93.20
53422;DHT22;39319;52.944;5.928;2023-07-30T12:21:32;22.70;92.40
53422;DHT22;39319;52.944;5.928;2023-07-30T12:24:00;22.70;92.20
53422;DHT22;39319;52.944;5.928;2023-07-30T12:26:26;22.80;91.40
53422;DHT22;39319;52.944;5.928;2023-07-30T12:28:52;22.90;92.10
53422;DHT22;39319;52.944;5.928;2023-07-30T12:31:17;23.10;92.30
53422;DHT22;39319;52.944;5.928;2023-07-30T12:33:43;23.20;91.60
53422;DHT22;39319;52.944;5.928;2023-07-30T12:36:09;23.30;90.70
53422;DHT22;39319;52.944;5.928;2023-07-30T12:38:35;23.20;90.90
53422;DHT22;39319;52.944;5.928;2023-07-30T12:41:00;23.20;90.60
53422;DHT22;39319;52.944;5.928;2023-07-30T12:43:26;23.10;90.50
53422;DHT22;39319;52.944;5.928;2023-07-30T12:45:52;23.10;90.40
53422;DHT22;39319;52.944;5.928;2023-07-30T12:48:17;23.10;89.50
53422;DHT22;39319;52.944;5.928;2023-07-30T12:50:43;22.90;90.50
53422;DHT22;39319;52.944;5.928;2023-07-30T12:53:09;22.90;90.50
53422;DHT22;39319;52.944;5.928;2023-07-30T12:55:35;23.00;90.80
53422;DHT22;39319;52.944;5.928;2023-07-30T12:58:00;23.10;91.50
53422;DHT22;39319;52.944;5.928;2023-07-30T13:00:26;23.20;90.40
53422;DHT22;39319;52.944;5.928;2023-07-30T13:02:52;23.30;90.10
53422;DHT22;39319;52.944;5.928;2023-07-30T13:05:21;23.20;90.30
53422;DHT22;39319;52.944;5.928;2023-07-30T13:07:47;23.00;90.70
53422;DHT22;39319;52.944;5.928;2023-07-30T13:10:12;23.00;90.10
53422;DHT22;39319;52.944;5.928;2023-07-30T13:12:38;23.00;90.30
53422;DHT22;39319;52.944;5.928;2023-07-30T13:15:04;23.10;90.40
53422;DHT22;39319;52.944;5.928;2023-07-30T13:17:30;23.00;90.20
53422;DHT22;39319;52.944;5.928;2023-07-30T13:19:57;23.30;90.80
53422;DHT22;39319;52.944;5.928;2023-07-30T13:22:25;23.60;90.30
53422;DHT22;39319;52.944;5.928;2023-07-30T13:24:51;23.60;88.40
53422;DHT22;39319;52.944;5.928;2023-07-30T13:27:17;23.50;88.10
53422;DHT22;39319;52.944;5.928;2023-07-30T13:29:43;23.30;89.10
53422;DHT22;39319;52.944;5.928;2023-07-30T13:32:09;23.30;88.60
53422;DHT22;39319;52.944;5.928;2023-07-30T13:34:35;23.50;88.20
53422;DHT22;39319;52.944;5.928;2023-07-30T13:37:00;23.60;89.20
53422;DHT22;39319;52.944;5.928;2023-07-30T13:39:27;23.70;89.40
53422;DHT22;39319;52.944;5.928;2023-07-30T13:41:53;23.90;90.00
53422;DHT22;39319;52.944;5.928;2023-07-30T13:44:20;23.90;89.30
53422;DHT22;39319;52.944;5.928;2023-07-30T13:46:46;24.00;88.80
53422;DHT22;39319;52.944;5.928;2023-07-30T13:49:12;23.90;89.20
53422;DHT22;39319;52.944;5.928;2023-07-30T13:51:37;23.80;90.00
53422;DHT22;39319;52.944;5.928;2023-07-30T13:54:03;23.70;89.70
53422;DHT22;39319;52.944;5.928;2023-07-30T13:56:30;23.60;90.80
53422;DHT22;39319;52.944;5.928;2023-07-30T13:58:56;23.50;91.10
53422;DHT22;39319;52.944;5.928;2023-07-30T14:01:22;23.50;90.60
53422;DHT22;39319;52.944;5.928;2023-07-30T14:03:48;23.80;90.20
53422;DHT22;39319;52.944;5.928;2023-07-30T14:06:14;23.80;90.40
53422;DHT22;39319;52.944;5.928;2023-07-30T14:08:39;23.80;90.60
53422;DHT22;39319;52.944;5.928;2023-07-30T14:11:05;23.80;90.70
53422;DHT22;39319;52.944;5.928;2023-07-30T14:13:31;23.80;90.80
53422;DHT22;39319;52.944;5.928;2023-07-30T14:15:57;23.60;91.00
53422;DHT22;39319;52.944;5.928;2023-07-30T14:18:24;23.50;91.10
53422;DHT22;39319;52.944;5.928;2023-07-30T14:20:50;23.40;91.30
53422;DHT22;39319;52.944;5.928;2023-07-30T14:23:15;23.30;91.00
53422;DHT22;39319;52.944;5.928;2023-07-30T14:25:41;23.10;90.60
53422;DHT22;39319;52.944;5.928;2023-07-30T14:28:07;23.00;90.90
53422;DHT22;39319;52.944;5.928;2023-07-30T14:30:35;22.80;90.60
53422;DHT22;39319;52.944;5.928;2023-07-30T14:33:01;22.60;91.40
53422;DHT22;39319;52.944;5.928;2023-07-30T14:35:28;22.40;92.80
53422;DHT22;39319;52.944;5.928;2023-07-30T14:37:54;22.20;92.90
53422;DHT22;39319;52.944;5.928;2023-07-30T14:40:20;22.00;93.70
53422;DHT22;39319;52.944;5.928;2023-07-30T14:42:46;21.80;94.30
53422;DHT22;39319;52.944;5.928;2023-07-30T14:45:12;21.60;95.10
53422;DHT22;39319;52.944;5.928;2023-07-30T14:47:37;21.60;95.10
53422;DHT22;39319;52.944;5.928;2023-07-30T14:50:05;21.60;95.70
53422;DHT22;39319;52.944;5.928;2023-07-30T14:52:31;21.50;96.10
53422;DHT22;39319;52.944;5.928;2023-07-30T14:54:57;21.60;95.70
53422;DHT22;39319;52.944;5.928;2023-07-30T14:57:23;21.60;96.20
53422;DHT22;39319;52.944;5.928;2023-07-30T14:59:49;21.80;97.00
53422;DHT22;39319;52.944;5.928;2023-07-30T15:02:14;22.10;97.10
53422;DHT22;39319;52.944;5.928;2023-07-30T15:04:40;22.20;96.10
53422;DHT22;39319;52.944;5.928;2023-07-30T15:07:06;22.30;95.20
53422;DHT22;39319;52.944;5.928;2023-07-30T15:09:34;22.40;96.10
53422;DHT22;39319;52.944;5.928;2023-07-30T15:12:01;22.60;95.60
53422;DHT22;39319;52.944;5.928;2023-07-30T15:14:27;22.80;95.30
53422;DHT22;39319;52.944;5.928;2023-07-30T15:16:53;22.90;94.30
53422;DHT22;39319;52.944;5.928;2023-07-30T15:19:19;23.00;92.80
53422;DHT22;39319;52.944;5.928;2023-07-30T15:21:45;23.20;92.60
53422;DHT22;39319;52.944;5.928;2023-07-30T15:24:11;23.40;91.60
53422;DHT22;39319;52.944;5.928;2023-07-30T15:26:36;23.40;92.00
53422;DHT22;39319;52.944;5.928;2023-07-30T15:29:02;23.50;91.30
53422;DHT22;39319;52.944;5.928;2023-07-30T15:31:29;23.60;90.20
53422;DHT22;39319;52.944;5.928;2023-07-30T15:33:55;23.60;89.80
53422;DHT22;39319;52.944;5.928;2023-07-30T15:36:22;23.50;90.10
53422;DHT22;39319;52.944;5.928;2023-07-30T15:38:48;23.50;89.00